Time;durP1;ratioP1;P1;durP2;ratioP2;P2;SDS_P1;SDS_P2;PMS_P1;PMS_P2;Temp;Humidity;BMP_temperature;BMP_pressure;BME280_temperature;BME280_humidity;BME280_pressure;Samples;Min_cycle;Max_cycle;Signal;HPM_P1;HPM_P2
2022/06/05 00:01:29;;;;;;;7.93;7.23;;;18.00;99.90;;;;;;4971792;28;20265;-83
2022/06/05 00:04:03;;;;;;;8.07;7.37;;;18.00;99.90;;;;;;4957090;28;20197;-83
2022/06/05 00:06:40;;;;;;;8.70;7.90;;;18.00;99.90;;;;;;4955601;28;20223;-82
2022/06/05 00:09:16;;;;;;;8.03;7.43;;;17.90;99.90;;;;;;4953067;28;20203;-83
2022/06/05 00:11:50;;;;;;;8.43;7.73;;;17.90;99.90;;;;;;4950728;28;20210;-83
2022/06/05 00:14:17;;;;;;;8.17;7.33;;;17.80;99.90;;;;;;4952996;28;20257;-83
2022/06/05 00:16:45;;;;;;;8.70;7.90;;;17.80;99.90;;;;;;4971637;28;20229;-83
2022/06/05 00:19:12;;;;;;;8.83;8.13;;;17.70;99.90;;;;;;4968517;28;20640;-83
2022/06/05 00:21:39;;;;;;;9.30;8.50;;;17.70;99.90;;;;;;4971272;28;20195;-82
2022/06/05 00:24:06;;;;;;;8.57;7.77;;;17.60;99.90;;;;;;4955427;28;20258;-82
2022/06/05 00:26:41;;;;;;;9.10;8.33;;;17.70;99.90;;;;;;4955206;28;20219;-82
2022/06/05 00:29:21;;;;;;;9.23;8.37;;;17.60;99.90;;;;;;4971546;28;20253;-83
2022/06/05 00:31:55;;;;;;;11.20;10.40;;;17.60;99.90;;;;;;4961787;28;20215;-83
2022/06/05 00:34:22;;;;;;;10.40;9.60;;;17.50;99.90;;;;;;4953315;28;20213;-83
2022/06/05 00:37:10;;;;;;;7.13;6.43;;;17.50;99.90;;;;;;4970853;28;20257;-81
2022/06/05 00:39:46;;;;;;;7.00;6.30;;;17.40;99.90;;;;;;4970631;28;20252;-82
2022/06/05 00:42:17;;;;;;;6.67;6.07;;;17.40;99.90;;;;;;4955176;28;20276;-82
2022/06/05 00:44:47;;;;;;;6.93;6.23;;;17.30;99.90;;;;;;4970877;28;20261;-82
2022/06/05 00:47:19;;;;;;;9.03;8.23;;;17.30;99.90;;;;;;4954753;28;20653;-82
2022/06/05 00:49:49;;;;;;;7.57;6.87;;;17.30;99.90;;;;;;4970898;28;20209;-82
2022/06/05 00:52:18;;;;;;;8.97;6.43;;;17.30;99.90;;;;;;4954866;28;20226;-82
2022/06/05 00:54:45;;;;;;;6.80;5.90;;;17.30;99.90;;;;;;4956721;28;20205;-83
2022/06/05 00:57:13;;;;;;;7.13;6.53;;;17.30;99.90;;;;;;4959342;28;20750;-83
2022/06/05 00:59:43;;;;;;;7.33;6.63;;;17.30;99.90;;;;;;4970822;28;20209;-82
2022/06/05 01:02:11;;;;;;;7.20;6.47;;;17.20;99.90;;;;;;4967624;28;20731;-82
2022/06/05 01:04:43;;;;;;;6.87;6.17;;;17.20;99.90;;;;;;4970757;28;20479;-82
2022/06/05 01:07:11;;;;;;;7.10;6.40;;;17.20;99.90;;;;;;4955859;28;20214;-82
2022/06/05 01:09:39;;;;;;;7.03;6.33;;;17.20;99.90;;;;;;4948334;28;20197;-83
2022/06/05 01:12:12;;;;;;;7.13;6.43;;;17.20;99.90;;;;;;4970590;28;20282;-83
2022/06/05 01:14:56;;;;;;;7.53;6.83;;;17.20;99.90;;;;;;4960381;28;20567;-81
2022/06/05 01:17:32;;;;;;;11.07;10.27;;;17.20;99.90;;;;;;4952800;28;20218;-81
2022/06/05 01:20:11;;;;;;;8.10;7.30;;;17.20;99.90;;;;;;4955793;28;20253;-83
2022/06/05 01:23:08;;;;;;;7.33;6.63;;;17.10;99.90;;;;;;4954336;28;20260;-83
2022/06/05 01:25:44;;;;;;;7.13;6.20;;;17.20;99.90;;;;;;4970374;28;20195;-83
2022/06/05 01:28:17;;;;;;;6.67;5.90;;;17.20;99.90;;;;;;4954421;28;20272;-82
2022/06/05 01:30:50;;;;;;;9.10;8.33;;;17.20;99.90;;;;;;4961160;28;20683;-83
2022/06/05 01:33:22;;;;;;;7.17;6.47;;;17.20;99.90;;;;;;4970356;28;20232;-82
2022/06/05 01:35:57;;;;;;;7.50;6.80;;;17.20;99.90;;;;;;4955682;28;20270;-81
2022/06/05 01:38:30;;;;;;;7.97;6.87;;;17.20;99.90;;;;;;4968940;28;20231;-82
2022/06/05 01:41:04;;;;;;;7.47;6.67;;;17.20;99.90;;;;;;4954043;28;20202;-83
2022/06/05 01:43:35;;;;;;;7.40;6.70;;;17.20;99.90;;;;;;4955260;28;20205;-82
2022/06/05 01:46:07;;;;;;;6.97;6.27;;;17.20;99.90;;;;;;4955122;28;20634;-82
2022/06/05 01:48:39;;;;;;;7.53;6.83;;;17.20;99.90;;;;;;4953943;28;20671;-82
2022/06/05 01:51:11;;;;;;;8.83;7.43;;;17.20;99.90;;;;;;4954867;28;20202;-82
2022/06/05 01:53:42;;;;;;;9.33;8.43;;;17.20;99.90;;;;;;4959133;28;20262;-82
2022/06/05 01:56:15;;;;;;;9.23;8.33;;;17.30;99.90;;;;;;4950422;28;20264;-82
2022/06/05 01:58:46;;;;;;;8.13;7.33;;;17.30;99.90;;;;;;4968027;28;20209;-82
2022/06/05 02:01:17;;;;;;;8.50;7.73;;;17.30;99.90;;;;;;4953320;28;20210;-82
2022/06/05 02:03:48;;;;;;;9.87;8.87;;;17.30;99.90;;;;;;4954819;28;20201;-82
2022/06/05 02:06:19;;;;;;;9.33;8.53;;;17.40;99.90;;;;;;4954754;28;20595;-82
2022/06/05 02:08:49;;;;;;;10.87;9.87;;;17.40;99.90;;;;;;4969868;28;20213;-82
2022/06/05 02:11:21;;;;;;;12.50;11.20;;;17.40;99.90;;;;;;4953653;28;20262;-82
2022/06/05 02:13:49;;;;;;;12.03;10.87;;;17.40;99.90;;;;;;4951765;28;20635;-83
2022/06/05 02:16:16;;;;;;;11.33;10.23;;;17.50;99.90;;;;;;4954022;28;20500;-83
2022/06/05 02:18:43;;;;;;;11.93;10.83;;;17.50;99.90;;;;;;4953467;28;20255;-82
2022/06/05 02:21:10;;;;;;;12.30;11.20;;;17.50;99.90;;;;;;4966679;28;20210;-81
2022/06/05 02:23:40;;;;;;;13.60;12.40;;;17.50;99.90;;;;;;4947080;28;20201;-83
2022/06/05 02:26:09;;;;;;;13.57;12.47;;;17.50;99.90;;;;;;4954317;28;20244;-82
2022/06/05 02:28:38;;;;;;;17.60;12.97;;;17.50;99.90;;;;;;4961455;28;20210;-82
2022/06/05 02:31:18;;;;;;;13.30;11.93;;;17.60;99.90;;;;;;4953858;28;20643;-82
2022/06/05 02:33:55;;;;;;;13.37;12.27;;;17.60;99.90;;;;;;4959749;28;20199;-83
2022/06/05 02:36:30;;;;;;;13.23;12.20;;;17.60;99.90;;;;;;4951919;28;20218;-82
2022/06/05 02:39:08;;;;;;;13.13;11.93;;;17.60;99.90;;;;;;4955107;28;20196;-81
2022/06/05 02:41:42;;;;;;;12.03;10.90;;;17.60;99.90;;;;;;4969441;28;20205;-82
2022/06/05 02:44:31;;;;;;;12.50;11.50;;;17.60;99.90;;;;;;4969470;28;20257;-81
2022/06/05 02:47:15;;;;;;;12.73;11.63;;;17.60;99.90;;;;;;4964074;28;20233;-81
2022/06/05 02:49:47;;;;;;;14.93;13.53;;;17.50;99.90;;;;;;4953178;28;20254;-82
2022/06/05 02:52:14;;;;;;;13.10;12.00;;;17.50;99.90;;;;;;4953074;28;20225;-82
2022/06/05 02:54:47;;;;;;;12.67;11.60;;;17.50;99.90;;;;;;4969477;28;20210;-82
2022/06/05 02:57:14;;;;;;;12.40;11.30;;;17.50;99.90;;;;;;4942658;28;20431;-82
2022/06/05 02:59:42;;;;;;;12.33;11.33;;;17.50;99.90;;;;;;4950280;28;20242;-82
2022/06/05 03:04:53;;;;;;;13.60;12.50;;;17.50;99.90;;;;;;4952911;28;20328;-82
2022/06/05 03:07:20;;;;;;;11.80;10.80;;;17.40;99.90;;;;;;4969578;28;20229;-82
2022/06/05 03:09:47;;;;;;;12.73;11.63;;;17.40;99.90;;;;;;4957177;28;20635;-83
2022/06/05 03:12:14;;;;;;;11.47;10.37;;;17.40;99.90;;;;;;4958541;28;20226;-82
2022/06/05 03:14:42;;;;;;;10.90;9.77;;;17.40;99.90;;;;;;4970993;28;20218;-83
2022/06/05 03:17:09;;;;;;;10.40;9.40;;;17.40;99.90;;;;;;4962885;28;20222;-82
2022/06/05 03:19:36;;;;;;;10.07;9.03;;;17.40;99.90;;;;;;4960308;28;20197;-80
2022/06/05 03:22:03;;;;;;;9.47;8.57;;;17.50;99.90;;;;;;4959912;28;21546;-84
2022/06/05 03:24:30;;;;;;;10.27;9.37;;;17.40;99.90;;;;;;4960526;28;20208;-83
2022/06/05 03:26:57;;;;;;;9.73;8.83;;;17.50;99.90;;;;;;4960636;28;20221;-82
2022/06/05 03:29:23;;;;;;;10.60;9.50;;;17.50;99.90;;;;;;4956761;28;20213;-79
2022/06/05 03:31:51;;;;;;;11.83;10.57;;;17.50;99.90;;;;;;4958139;28;20296;-80
2022/06/05 03:34:18;;;;;;;10.90;9.37;;;17.50;99.90;;;;;;4962154;28;20554;-81
2022/06/05 03:36:46;;;;;;;9.53;8.63;;;17.50;99.90;;;;;;4975211;28;20292;-78
2022/06/05 03:39:13;;;;;;;9.53;8.63;;;17.50;99.90;;;;;;4957583;28;20200;-79
2022/06/05 03:41:40;;;;;;;9.33;8.43;;;17.50;99.90;;;;;;4970357;28;20246;-78
2022/06/05 03:44:06;;;;;;;9.93;8.93;;;17.50;99.90;;;;;;4959353;28;20201;-79
2022/06/05 03:46:37;;;;;;;8.93;8.13;;;17.50;99.90;;;;;;4960222;28;20252;-80
2022/06/05 03:49:06;;;;;;;10.40;9.30;;;17.50;99.90;;;;;;4961329;28;20205;-79
2022/06/05 03:51:33;;;;;;;10.50;9.50;;;17.50;99.90;;;;;;4973602;28;20686;-78
2022/06/05 03:54:00;;;;;;;8.80;7.90;;;17.50;99.90;;;;;;4958652;28;20702;-79
2022/06/05 03:56:28;;;;;;;8.53;7.73;;;17.60;99.90;;;;;;4956942;28;20704;-80
2022/06/05 03:58:56;;;;;;;8.43;7.63;;;17.60;99.90;;;;;;4958611;28;20202;-81
2022/06/05 04:01:24;;;;;;;9.07;8.20;;;17.60;99.90;;;;;;4957310;28;20243;-79
2022/06/05 04:03:52;;;;;;;8.87;7.97;;;17.70;99.90;;;;;;4956876;28;20742;-83
2022/06/05 04:06:22;;;;;;;11.00;10.20;;;17.60;99.90;;;;;;4956513;28;20194;-83
2022/06/05 04:08:49;;;;;;;10.57;9.67;;;17.70;99.90;;;;;;4956667;28;20265;-82
2022/06/05 04:11:20;;;;;;;9.80;9.00;;;17.70;99.90;;;;;;4971232;28;20207;-82
2022/06/05 04:13:48;;;;;;;10.30;9.37;;;17.70;99.90;;;;;;4952768;28;20273;-83
2022/06/05 04:16:16;;;;;;;9.07;8.27;;;17.70;99.90;;;;;;4961241;28;20198;-83
2022/06/05 04:18:43;;;;;;;9.70;8.80;;;17.70;99.90;;;;;;4956512;28;20206;-82
2022/06/05 04:21:12;;;;;;;10.13;9.23;;;17.70;99.90;;;;;;4956029;28;20261;-83
2022/06/05 04:23:41;;;;;;;9.57;8.77;;;17.60;99.90;;;;;;4954999;28;20202;-82
2022/06/05 04:26:09;;;;;;;12.10;11.10;;;17.70;99.90;;;;;;4954676;28;20694;-82
2022/06/05 04:28:36;;;;;;;12.47;11.30;;;17.70;99.90;;;;;;4965217;28;20207;-82
2022/06/05 04:31:04;;;;;;;14.53;13.33;;;17.70;99.90;;;;;;4955183;28;20617;-83
2022/06/05 04:33:31;;;;;;;12.43;11.33;;;17.70;99.90;;;;;;4954768;28;20258;-83
2022/06/05 04:35:58;;;;;;;12.43;11.43;;;17.70;99.90;;;;;;4959494;28;20205;-83
2022/06/05 04:38:26;;;;;;;12.30;11.30;;;17.70;99.90;;;;;;4955913;28;20600;-80
2022/06/05 04:40:54;;;;;;;9.77;8.77;;;17.70;99.90;;;;;;4955460;28;20203;-83
2022/06/05 04:43:20;;;;;;;9.23;8.37;;;17.70;99.90;;;;;;4976852;28;20624;-83
2022/06/05 04:45:47;;;;;;;9.10;8.20;;;17.70;99.90;;;;;;4971028;28;20270;-87
2022/06/05 04:48:14;;;;;;;8.37;7.57;;;17.80;99.90;;;;;;4955010;28;20248;-78
2022/06/05 04:50:41;;;;;;;8.70;7.90;;;17.80;99.90;;;;;;4958390;28;20219;-78
2022/06/05 04:53:08;;;;;;;9.40;8.50;;;17.80;99.90;;;;;;4958453;28;20214;-78
2022/06/05 04:55:38;;;;;;;13.33;12.33;;;17.80;99.90;;;;;;4955196;28;21000;-77
2022/06/05 04:58:06;;;;;;;9.60;8.67;;;17.80;99.90;;;;;;4957090;28;20214;-78
2022/06/05 05:00:33;;;;;;;12.07;10.97;;;17.80;99.90;;;;;;4954672;28;20214;-79
2022/06/05 05:03:00;;;;;;;11.30;10.30;;;17.90;99.90;;;;;;4954550;28;20206;-78
2022/06/05 05:05:27;;;;;;;11.70;10.70;;;17.90;99.90;;;;;;4954655;28;20262;-80
2022/06/05 05:07:53;;;;;;;11.80;10.70;;;17.90;99.90;;;;;;4970392;28;20715;-81
2022/06/05 05:10:20;;;;;;;11.87;10.67;;;17.90;99.90;;;;;;4957026;28;20265;-81
2022/06/05 05:12:47;;;;;;;14.93;9.13;;;18.00;99.90;;;;;;4952386;28;20269;-80
2022/06/05 05:15:15;;;;;;;15.10;13.60;;;18.00;99.90;;;;;;4953616;28;20202;-80
2022/06/05 05:17:42;;;;;;;15.47;14.07;;;18.00;99.90;;;;;;4951484;28;20723;-79
2022/06/05 05:20:10;;;;;;;16.67;14.97;;;18.00;99.90;;;;;;4956721;28;20202;-79
2022/06/05 05:22:44;;;;;;;20.70;15.83;;;17.90;99.90;;;;;;4958647;28;20199;-79
2022/06/05 05:25:12;;;;;;;16.93;15.23;;;17.70;99.90;;;;;;4956304;28;20201;-80
2022/06/05 05:27:40;;;;;;;18.43;16.60;;;17.60;99.90;;;;;;4970517;28;20777;-80
2022/06/05 05:30:08;;;;;;;18.63;16.63;;;17.50;99.90;;;;;;4955824;28;20200;-79
2022/06/05 05:32:36;;;;;;;12.80;11.50;;;17.40;99.90;;;;;;4955554;28;20264;-78
2022/06/05 05:35:03;;;;;;;16.03;12.93;;;17.30;99.90;;;;;;4954973;28;20198;-78
2022/06/05 05:37:30;;;;;;;13.90;12.17;;;17.30;99.90;;;;;;4954889;28;20229;-79
2022/06/05 05:42:41;;;;;;;12.97;11.67;;;17.30;99.90;;;;;;4955444;28;20204;-79
2022/06/05 05:45:09;;;;;;;13.13;10.83;;;17.30;99.90;;;;;;4957001;28;20201;-78
2022/06/05 05:47:37;;;;;;;12.53;11.23;;;17.20;99.90;;;;;;4955639;28;20233;-79
2022/06/05 05:50:07;;;;;;;13.47;12.07;;;17.20;99.90;;;;;;4957947;28;20781;-79
2022/06/05 05:52:34;;;;;;;13.53;11.30;;;17.20;99.90;;;;;;4957747;28;20202;-80
2022/06/05 05:55:01;;;;;;;12.80;11.50;;;17.20;99.90;;;;;;4956434;28;20233;-80
2022/06/05 05:57:28;;;;;;;11.60;10.40;;;17.20;99.90;;;;;;4958139;28;20758;-78
2022/06/05 05:59:55;;;;;;;11.13;10.07;;;17.10;99.90;;;;;;4954168;28;20258;-79
2022/06/05 06:02:26;;;;;;;12.03;9.63;;;17.10;99.90;;;;;;4953998;28;20294;-79
2022/06/05 06:04:54;;;;;;;10.47;9.40;;;17.10;99.90;;;;;;4953531;28;20194;-79
2022/06/05 06:07:21;;;;;;;12.50;11.30;;;17.10;99.90;;;;;;4954199;28;20280;-79
2022/06/05 06:09:48;;;;;;;11.20;10.17;;;17.10;99.90;;;;;;4954600;28;20192;-80
2022/06/05 06:12:15;;;;;;;10.13;9.03;;;17.00;99.90;;;;;;4952626;28;20268;-79
2022/06/05 06:14:41;;;;;;;10.73;9.73;;;17.10;99.90;;;;;;4954756;28;20232;-80
2022/06/05 06:17:09;;;;;;;17.03;15.93;;;16.90;99.90;;;;;;4956481;28;20253;-79
2022/06/05 06:19:36;;;;;;;9.70;8.80;;;16.90;99.90;;;;;;4955276;28;20220;-79
2022/06/05 06:22:05;;;;;;;8.67;7.87;;;16.80;99.90;;;;;;4957524;28;20208;-79
2022/06/05 06:24:32;;;;;;;9.03;8.23;;;16.80;99.90;;;;;;4957219;28;20673;-79
2022/06/05 06:26:59;;;;;;;10.33;9.63;;;16.80;99.90;;;;;;4955134;28;20242;-78
2022/06/05 06:29:26;;;;;;;8.13;6.60;;;16.80;99.90;;;;;;4954980;28;20629;-79
2022/06/05 06:31:53;;;;;;;7.67;6.87;;;16.80;99.90;;;;;;4956471;28;20205;-78
2022/06/05 06:34:20;;;;;;;11.40;10.63;;;16.70;99.90;;;;;;4955465;28;20225;-78
2022/06/05 06:36:48;;;;;;;17.30;16.13;;;16.80;99.90;;;;;;4955923;28;20243;-79
2022/06/05 06:39:16;;;;;;;8.73;7.97;;;16.70;99.90;;;;;;4954492;28;20211;-81
2022/06/05 06:41:42;;;;;;;5.63;5.10;;;16.70;99.90;;;;;;4969478;28;20201;-79
2022/06/05 06:44:09;;;;;;;5.73;4.90;;;16.70;99.90;;;;;;4954607;28;20201;-80
2022/06/05 06:46:37;;;;;;;7.07;4.77;;;16.70;99.90;;;;;;4965899;28;20231;-82
2022/06/05 06:49:03;;;;;;;5.43;4.20;;;16.60;99.90;;;;;;4954309;28;20296;-79
2022/06/05 06:51:30;;;;;;;13.17;12.33;;;16.50;99.90;;;;;;4951525;28;20273;-78
2022/06/05 06:53:57;;;;;;;13.70;12.90;;;16.50;99.90;;;;;;4951834;28;20212;-78
2022/06/05 06:56:28;;;;;;;5.83;4.33;;;16.40;99.90;;;;;;4953272;28;20213;-78
2022/06/05 06:58:56;;;;;;;6.13;5.00;;;16.40;99.90;;;;;;4953686;28;20681;-78
2022/06/05 07:01:22;;;;;;;13.83;12.83;;;16.30;99.90;;;;;;4952760;28;20245;-78
2022/06/05 07:03:49;;;;;;;4.30;3.90;;;16.30;99.90;;;;;;4951698;28;20254;-78
2022/06/05 07:06:17;;;;;;;4.40;4.00;;;16.30;99.90;;;;;;4953203;28;20612;-78
2022/06/05 07:08:45;;;;;;;7.20;4.87;;;16.30;99.90;;;;;;4967857;28;20208;-78
2022/06/05 07:11:14;;;;;;;4.07;3.77;;;16.30;99.90;;;;;;4953161;28;20207;-79
2022/06/05 07:13:42;;;;;;;11.73;10.93;;;16.30;99.90;;;;;;4965872;28;20211;-79
2022/06/05 07:16:10;;;;;;;13.60;12.80;;;16.30;99.90;;;;;;4953764;28;20698;-79
2022/06/05 07:18:38;;;;;;;12.93;12.13;;;16.30;99.90;;;;;;4954035;28;20227;-79
2022/06/05 07:21:10;;;;;;;4.03;3.73;;;16.30;99.90;;;;;;4953040;28;20263;-78
2022/06/05 07:23:37;;;;;;;4.00;3.70;;;16.30;99.90;;;;;;4953398;28;20200;-79
2022/06/05 07:26:04;;;;;;;3.80;3.50;;;16.40;99.90;;;;;;4953625;28;20252;-79
2022/06/05 07:28:31;;;;;;;4.40;4.00;;;16.40;99.90;;;;;;4954408;28;20215;-80
2022/06/05 07:31:11;;;;;;;4.20;3.90;;;16.40;99.90;;;;;;4947831;28;20209;-79
2022/06/05 07:36:54;;;;;;;3.90;3.60;;;16.60;99.90;;;;;;4950993;28;20317;-77
2022/06/05 07:39:21;;;;;;;3.80;3.50;;;16.70;99.90;;;;;;4956370;28;20231;-80
2022/06/05 07:41:50;;;;;;;4.83;3.87;;;16.80;99.90;;;;;;4956456;28;20205;-79
2022/06/05 07:44:19;;;;;;;3.90;3.60;;;16.80;99.90;;;;;;4950961;28;20286;-79
2022/06/05 07:46:50;;;;;;;4.60;3.60;;;16.90;99.90;;;;;;4954450;28;20228;-79
2022/06/05 07:49:17;;;;;;;3.70;3.40;;;17.00;99.90;;;;;;4963241;28;20207;-79
2022/06/05 07:54:30;;;;;;;5.40;5.00;;;17.30;99.90;;;;;;4956090;28;20229;-80
2022/06/05 07:56:58;;;;;;;10.87;9.97;;;17.60;99.90;;;;;;4959230;28;20761;-79
2022/06/05 07:59:25;;;;;;;10.77;10.17;;;17.80;99.90;;;;;;4955528;28;20213;-80
2022/06/05 08:01:53;;;;;;;9.43;8.87;;;18.00;99.90;;;;;;4970162;28;20202;-81
2022/06/05 08:04:20;;;;;;;10.20;9.50;;;18.20;99.90;;;;;;4956919;28;20215;-81
2022/06/05 08:06:48;;;;;;;14.80;13.90;;;18.40;99.90;;;;;;4955664;28;20707;-81
2022/06/05 08:09:16;;;;;;;7.03;6.43;;;18.60;99.90;;;;;;4956320;28;20503;-81
2022/06/05 08:11:45;;;;;;;6.07;5.53;;;18.90;99.90;;;;;;4955240;28;20265;-81
2022/06/05 08:14:13;;;;;;;9.10;8.50;;;19.10;99.90;;;;;;4956946;28;20227;-81
2022/06/05 08:16:43;;;;;;;9.83;9.17;;;19.50;99.90;;;;;;4957727;28;20607;-82
2022/06/05 08:19:12;;;;;;;10.00;9.30;;;19.70;99.90;;;;;;4957077;28;20207;-81
2022/06/05 08:21:39;;;;;;;8.10;7.60;;;19.90;99.90;;;;;;4961386;28;20209;-81
2022/06/05 08:24:06;;;;;;;8.40;7.80;;;20.10;99.90;;;;;;4956168;28;20251;-81
2022/06/05 08:26:33;;;;;;;2.90;2.60;;;20.30;99.90;;;;;;4963576;28;20220;-81
2022/06/05 08:29:00;;;;;;;8.40;7.80;;;20.30;99.90;;;;;;4969483;28;20201;-82
2022/06/05 08:31:29;;;;;;;5.77;5.47;;;20.40;99.90;;;;;;4954386;28;20218;-81
2022/06/05 08:33:56;;;;;;;7.40;6.90;;;20.70;99.90;;;;;;4957204;28;20232;-81
2022/06/05 08:36:26;;;;;;;5.97;5.50;;;20.90;99.90;;;;;;4957803;28;20206;-80
2022/06/05 08:41:47;;;;;;;5.70;5.40;;;21.90;99.90;;;;;;4967432;28;20190;-81
2022/06/05 08:44:27;;;;;;;3.07;2.87;;;22.40;99.90;;;;;;4957681;28;20245;-81
2022/06/05 08:46:58;;;;;;;6.20;5.80;;;23.00;99.90;;;;;;4969456;28;20238;-78
2022/06/05 08:49:35;;;;;;;6.53;6.13;;;23.40;99.90;;;;;;4954749;28;20711;-79
2022/06/05 08:52:20;;;;;;;6.80;6.20;;;23.70;99.90;;;;;;4954636;28;20575;-79
2022/06/05 08:54:54;;;;;;;5.60;5.20;;;23.70;99.90;;;;;;4951171;28;20219;-79
2022/06/05 08:57:26;;;;;;;6.23;5.73;;;24.10;99.90;;;;;;4955212;28;20664;-79
2022/06/05 09:00:02;;;;;;;4.93;4.60;;;24.30;99.90;;;;;;4954850;28;20206;-79
2022/06/05 09:02:48;;;;;;;5.00;4.60;;;24.40;99.90;;;;;;4952842;28;20283;-79
2022/06/05 09:05:22;;;;;;;6.30;5.80;;;24.40;99.90;;;;;;4948135;28;20666;-79
2022/06/05 09:07:52;;;;;;;6.37;5.87;;;24.50;99.90;;;;;;4967361;28;20765;-78
2022/06/05 09:10:25;;;;;;;5.30;4.90;;;24.60;99.90;;;;;;4955405;28;20198;-79
2022/06/05 09:12:55;;;;;;;5.97;5.47;;;24.50;99.90;;;;;;4965400;28;20355;-78
2022/06/05 09:15:28;;;;;;;6.10;5.57;;;24.30;99.90;;;;;;4952240;28;20214;-81
2022/06/05 09:17:57;;;;;;;8.40;5.50;;;24.20;99.90;;;;;;4966732;28;20673;-80
2022/06/05 09:20:32;;;;;;;6.50;5.20;;;23.80;99.90;;;;;;4951106;28;20203;-82
2022/06/05 09:23:08;;;;;;;5.73;5.23;;;23.60;99.90;;;;;;4947957;28;20271;-82
2022/06/05 09:25:44;;;;;;;6.20;5.70;;;23.60;99.90;;;;;;4953409;28;20217;-82
2022/06/05 09:29:01;;;;;;;7.27;6.37;;;23.70;99.90;;;;;;4953155;28;20226;-81
2022/06/05 09:31:50;;;;;;;6.57;6.07;;;23.30;99.90;;;;;;4918673;28;20214;-81
2022/06/05 09:34:20;;;;;;;7.00;5.30;;;22.80;99.90;;;;;;4964956;28;20227;-79
2022/06/05 09:36:57;;;;;;;6.77;6.23;;;22.50;99.90;;;;;;4966598;28;20278;-77
2022/06/05 09:39:30;;;;;;;3.80;3.43;;;22.40;99.90;;;;;;4959310;28;20741;-82
2022/06/05 09:42:15;;;;;;;5.97;2.90;;;22.50;99.90;;;;;;4974480;28;20198;-81
2022/06/05 09:44:53;;;;;;;5.07;3.30;;;22.60;99.90;;;;;;4962211;28;20623;-80
2022/06/05 09:47:24;;;;;;;3.47;2.80;;;22.80;99.90;;;;;;4951715;28;20282;-79
2022/06/05 09:49:55;;;;;;;4.27;3.23;;;23.20;99.90;;;;;;4966948;28;20277;-80
2022/06/05 09:52:25;;;;;;;4.10;2.83;;;23.30;99.90;;;;;;4954378;28;20296;-79
2022/06/05 09:55:01;;;;;;;4.03;3.63;;;23.20;99.90;;;;;;4970327;28;20306;-79
2022/06/05 10:00:31;;;;;;;6.67;6.10;;;22.70;99.90;;;;;;4956809;28;20577;-79
2022/06/05 10:03:02;;;;;;;7.90;7.10;;;22.40;99.90;;;;;;4970457;28;20300;-79
2022/06/05 10:05:31;;;;;;;8.83;8.10;;;22.20;99.90;;;;;;4971839;28;20198;-79
2022/06/05 10:08:04;;;;;;;8.53;7.90;;;22.10;99.90;;;;;;4966101;28;20221;-80
2022/06/05 10:10:38;;;;;;;9.50;8.67;;;21.90;99.90;;;;;;4953842;28;20230;-78
2022/06/05 10:13:14;;;;;;;8.90;8.10;;;21.80;99.90;;;;;;4956282;28;20257;-79
2022/06/05 10:15:47;;;;;;;9.00;8.33;;;21.70;99.90;;;;;;4950225;28;20202;-80
2022/06/05 10:18:21;;;;;;;9.30;8.50;;;21.70;99.90;;;;;;4953037;28;20724;-79
2022/06/05 10:20:56;;;;;;;10.70;8.73;;;21.60;99.90;;;;;;4955126;28;20634;-79
2022/06/05 10:23:36;;;;;;;8.87;8.17;;;21.60;99.90;;;;;;4969995;28;20823;-79
2022/06/05 10:26:15;;;;;;;7.90;7.40;;;21.60;99.90;;;;;;4968906;28;20192;-79
2022/06/05 10:28:43;;;;;;;8.73;8.10;;;21.50;99.90;;;;;;4952338;28;20233;-80
2022/06/05 10:31:14;;;;;;;9.60;8.60;;;21.30;99.90;;;;;;4955387;28;20241;-79
2022/06/05 10:33:49;;;;;;;9.33;8.53;;;21.20;99.90;;;;;;4951104;28;20199;-79
2022/06/05 10:36:19;;;;;;;9.40;8.60;;;21.00;99.90;;;;;;4953131;28;20206;-80
2022/06/05 10:38:56;;;;;;;9.50;8.57;;;20.90;99.90;;;;;;4955209;28;20400;-79
2022/06/05 10:41:33;;;;;;;8.63;7.93;;;20.60;99.90;;;;;;4955541;28;20201;-80
2022/06/05 10:44:15;;;;;;;9.73;8.80;;;20.50;99.90;;;;;;4966043;28;20219;-80
2022/06/05 10:46:55;;;;;;;9.17;8.33;;;20.40;99.90;;;;;;4966912;28;20786;-80
2022/06/05 10:49:31;;;;;;;9.53;8.73;;;20.30;99.90;;;;;;4954598;28;20679;-79
2022/06/05 10:52:08;;;;;;;9.57;8.77;;;20.20;99.90;;;;;;4958911;28;20198;-80
2022/06/05 10:54:42;;;;;;;9.57;8.67;;;20.10;99.90;;;;;;4955075;28;20221;-80
2022/06/05 10:57:15;;;;;;;10.10;9.23;;;20.00;99.90;;;;;;4955079;28;20229;-79
2022/06/05 10:59:53;;;;;;;9.47;8.63;;;20.00;99.90;;;;;;4969421;28;20262;-80
2022/06/05 11:02:32;;;;;;;11.37;8.80;;;19.90;99.90;;;;;;4972442;28;20212;-80
2022/06/05 11:05:11;;;;;;;9.97;9.03;;;19.80;99.90;;;;;;4968843;28;20216;-80
2022/06/05 11:07:57;;;;;;;9.23;8.53;;;19.70;99.90;;;;;;4954277;28;20739;-80
2022/06/05 11:13:43;;;;;;;9.43;8.63;;;19.60;99.90;;;;;;4957144;28;20220;-81
2022/06/05 11:16:21;;;;;;;9.30;8.60;;;19.50;99.90;;;;;;4953964;28;20307;-80
2022/06/05 11:18:53;;;;;;;10.30;9.40;;;19.40;99.90;;;;;;4960665;28;20264;-81
2022/06/05 11:21:22;;;;;;;10.40;9.60;;;19.40;99.90;;;;;;4967424;28;20208;-81
2022/06/05 11:23:53;;;;;;;10.73;9.40;;;19.40;99.90;;;;;;4954404;28;20226;-80
2022/06/05 11:26:29;;;;;;;10.27;9.30;;;19.50;99.90;;;;;;4958090;28;20228;-82
2022/06/05 11:29:11;;;;;;;10.10;9.40;;;19.70;99.90;;;;;;4959047;28;20208;-81
2022/06/05 11:31:51;;;;;;;9.90;9.20;;;20.00;99.90;;;;;;4956311;28;20206;-80
2022/06/05 11:34:33;;;;;;;9.20;8.60;;;20.40;99.90;;;;;;4958791;28;20202;-80
2022/06/05 11:37:28;;;;;;;9.80;9.10;;;20.90;99.90;;;;;;4973636;28;20281;-80
2022/06/05 11:40:05;;;;;;;9.83;9.10;;;21.10;99.90;;;;;;4950328;28;20217;-79
2022/06/05 11:42:38;;;;;;;10.57;9.67;;;21.30;99.90;;;;;;4953140;28;20202;-78
2022/06/05 11:45:37;;;;;;;10.30;9.60;;;21.30;99.90;;;;;;4957163;28;20190;-80
2022/06/05 11:48:15;;;;;;;7.57;6.97;;;21.20;99.90;;;;;;4973344;28;20230;-80
2022/06/05 11:50:53;;;;;;;7.60;7.00;;;21.20;99.90;;;;;;4964749;28;20201;-79
2022/06/05 11:53:41;;;;;;;10.87;9.90;;;21.40;99.90;;;;;;4977059;28;20210;-80
2022/06/05 11:56:56;;;;;;;10.70;9.50;;;21.60;99.90;;;;;;4960974;28;20229;-80
2022/06/05 11:59:39;;;;;;;6.03;5.13;;;21.80;99.90;;;;;;4956898;28;20207;-80
2022/06/05 12:02:42;;;;;;;5.03;4.63;;;21.80;99.90;;;;;;4961778;28;20206;-80
2022/06/05 12:05:17;;;;;;;9.97;9.10;;;21.70;99.90;;;;;;4954825;28;20569;-80
2022/06/05 12:07:49;;;;;;;6.10;4.00;;;21.60;99.90;;;;;;4957094;28;20230;-79
2022/06/05 12:10:22;;;;;;;6.17;4.60;;;21.50;99.90;;;;;;4959829;28;20210;-80
2022/06/05 12:13:13;;;;;;;5.53;4.17;;;21.50;99.90;;;;;;4969200;28;20645;-80
2022/06/05 12:15:53;;;;;;;6.80;3.97;;;21.50;99.90;;;;;;4967519;28;20223;-80
2022/06/05 12:18:28;;;;;;;6.27;3.73;;;21.60;99.90;;;;;;4951957;28;20641;-79
2022/06/05 12:21:02;;;;;;;9.23;8.53;;;21.60;99.90;;;;;;4954432;28;20202;-79
2022/06/05 12:23:33;;;;;;;8.90;4.13;;;21.60;99.90;;;;;;4955843;28;20198;-79
2022/06/05 12:26:05;;;;;;;3.70;3.30;;;21.70;99.90;;;;;;4955875;28;20203;-81
2022/06/05 12:28:39;;;;;;;4.30;3.50;;;21.80;99.90;;;;;;4955772;28;20203;-81
2022/06/05 12:31:14;;;;;;;6.57;4.40;;;22.10;99.90;;;;;;4968687;28;20258;-80
2022/06/05 12:33:49;;;;;;;10.23;9.30;;;22.40;99.90;;;;;;4957439;28;20204;-80
2022/06/05 12:36:26;;;;;;;3.73;3.40;;;22.60;99.90;;;;;;4958801;28;20237;-80
2022/06/05 12:38:58;;;;;;;5.90;3.30;;;22.80;99.90;;;;;;4969324;28;20579;-80
2022/06/05 12:41:31;;;;;;;4.73;4.17;;;22.90;99.90;;;;;;4972177;28;20236;-80
2022/06/05 12:44:05;;;;;;;3.83;3.43;;;22.90;99.90;;;;;;4968585;28;20270;-81
2022/06/05 12:46:37;;;;;;;3.40;3.07;;;22.90;99.90;;;;;;4972215;28;20272;-79
2022/06/05 12:49:23;;;;;;;6.80;6.10;;;22.80;99.90;;;;;;4966930;28;20594;-82
2022/06/05 12:51:59;;;;;;;5.30;4.50;;;22.70;99.90;;;;;;4972039;28;20221;-81
2022/06/05 12:54:34;;;;;;;15.03;3.50;;;22.80;99.90;;;;;;4957880;28;20225;-81
2022/06/05 12:57:09;;;;;;;4.27;3.03;;;22.80;99.90;;;;;;4956015;28;20214;-79
2022/06/05 12:59:44;;;;;;;5.80;3.20;;;23.00;99.90;;;;;;4953858;28;20209;-86
2022/06/05 13:02:24;;;;;;;4.33;3.10;;;23.00;99.90;;;;;;4957016;28;20279;-79
2022/06/05 13:04:58;;;;;;;7.10;6.50;;;23.30;99.90;;;;;;4958503;28;20195;-81
2022/06/05 13:07:33;;;;;;;13.33;7.63;;;23.40;99.90;;;;;;4969551;28;20218;-80
2022/06/05 13:10:03;;;;;;;9.13;8.10;;;23.50;99.90;;;;;;4966552;28;20608;-80
2022/06/05 13:12:34;;;;;;;7.70;6.60;;;23.30;99.90;;;;;;4955500;28;20225;-80
2022/06/05 13:15:05;;;;;;;6.70;6.20;;;23.00;99.90;;;;;;4956111;28;20273;-79
2022/06/05 13:17:43;;;;;;;7.23;6.63;;;22.90;99.90;;;;;;4957183;28;20269;-80
2022/06/05 13:20:21;;;;;;;6.30;5.90;;;22.60;99.90;;;;;;4957392;28;20253;-79
2022/06/05 13:22:54;;;;;;;6.23;5.63;;;22.20;99.90;;;;;;4969651;28;20202;-79
2022/06/05 13:25:25;;;;;;;5.43;4.93;;;22.00;99.90;;;;;;4968142;28;20220;-79